createdAt,value
2023-05-21T00:00:23.573Z,12.80
2023-05-21T00:04:29.757Z,12.80
2023-05-21T00:08:35.312Z,12.80
2023-05-21T00:12:41.918Z,12.80
2023-05-21T00:16:47.811Z,12.80
2023-05-21T00:20:53.782Z,12.70
2023-05-21T00:25:00.029Z,12.60
2023-05-21T00:29:05.519Z,12.70
2023-05-21T00:33:13.843Z,12.70
2023-05-21T00:37:19.464Z,12.70
2023-05-21T00:41:26.013Z,12.70
2023-05-21T00:45:31.523Z,12.70
2023-05-21T00:49:37.041Z,12.60
2023-05-21T00:53:43.097Z,12.60
2023-05-21T00:57:49.526Z,12.70
2023-05-21T01:01:56.729Z,12.70
2023-05-21T01:06:02.396Z,12.70
2023-05-21T01:10:10.651Z,12.70
2023-05-21T01:14:17.841Z,12.70
2023-05-21T01:18:23.883Z,12.70
2023-05-21T01:22:32.750Z,12.60
2023-05-21T01:26:38.996Z,12.60
2023-05-21T01:30:44.677Z,12.50
2023-05-21T01:35:05.616Z,12.60
2023-05-21T01:39:21.046Z,12.60
2023-05-21T01:43:29.953Z,12.60
2023-05-21T01:47:37.337Z,12.60
2023-05-21T01:51:43.343Z,12.50
2023-05-21T01:55:48.875Z,12.50
2023-05-21T01:59:55.245Z,12.50
2023-05-21T02:04:00.967Z,12.50
2023-05-21T02:08:08.464Z,12.50
2023-05-21T02:12:14.218Z,12.50
2023-05-21T02:16:20.041Z,12.40
2023-05-21T02:20:25.530Z,12.40
2023-05-21T02:24:31.386Z,12.40
2023-05-21T02:28:36.908Z,12.40
2023-05-21T02:32:43.630Z,12.40
2023-05-21T02:36:52.289Z,12.40
2023-05-21T02:40:57.809Z,12.40
2023-05-21T02:45:03.591Z,12.40
2023-05-21T02:49:09.169Z,12.40
2023-05-21T02:53:14.701Z,12.40
2023-05-21T02:57:20.623Z,12.40
2023-05-21T03:01:26.367Z,12.40
2023-05-21T03:05:31.912Z,12.40
2023-05-21T03:09:37.409Z,12.40
2023-05-21T03:13:43.174Z,12.30
2023-05-21T03:17:48.946Z,12.40
2023-05-21T03:21:56.477Z,12.30
2023-05-21T03:26:02.467Z,12.30
2023-05-21T03:30:09.459Z,12.30
2023-05-21T03:34:15.049Z,12.30
2023-05-21T03:38:20.539Z,12.30
2023-05-21T03:42:26.118Z,12.40
2023-05-21T03:46:32.557Z,12.30
2023-05-21T03:50:38.546Z,12.40
2023-05-21T03:54:44.084Z,12.40
2023-05-21T03:58:49.601Z,12.40
2023-05-21T04:02:55.260Z,12.40
2023-05-21T04:07:00.945Z,12.50
2023-05-21T04:11:06.445Z,12.50
2023-05-21T04:15:12.570Z,12.50
2023-05-21T04:19:18.072Z,12.60
2023-05-21T04:23:23.962Z,12.60
2023-05-21T04:27:29.873Z,12.60
2023-05-21T04:31:35.396Z,12.70
2023-05-21T04:35:44.559Z,12.70
2023-05-21T04:39:50.205Z,12.70
2023-05-21T04:43:55.689Z,12.80
2023-05-21T04:48:01.246Z,12.80
2023-05-21T04:52:08.481Z,12.90
2023-05-21T04:56:14.659Z,12.90
2023-05-21T05:00:21.449Z,13.00
2023-05-21T05:04:26.969Z,13.10
2023-05-21T05:08:32.461Z,13.30
2023-05-21T05:12:38.269Z,13.30
2023-05-21T05:16:43.791Z,13.40
2023-05-21T05:20:49.270Z,13.50
2023-05-21T05:24:54.762Z,13.60
2023-05-21T05:29:00.305Z,13.70
2023-05-21T05:33:05.896Z,13.80
2023-05-21T05:37:11.439Z,13.80
2023-05-21T05:41:16.923Z,14.00
2023-05-21T05:45:22.438Z,14.10
2023-05-21T05:49:27.923Z,14.10
2023-05-21T05:53:33.436Z,14.30
2023-05-21T05:57:38.958Z,14.30
2023-05-21T06:01:44.458Z,14.40
2023-05-21T06:05:50.222Z,14.60
2023-05-21T06:09:55.899Z,14.70
2023-05-21T06:14:01.782Z,14.70
2023-05-21T06:18:07.377Z,14.90
2023-05-21T06:22:12.904Z,15.00
2023-05-21T06:26:19.795Z,15.20
2023-05-21T06:30:25.294Z,15.30
2023-05-21T06:34:30.815Z,15.40
2023-05-21T06:38:36.339Z,15.60
2023-05-21T06:42:41.845Z,15.60
2023-05-21T06:46:47.348Z,15.70
2023-05-21T06:50:52.855Z,15.80
2023-05-21T06:54:58.439Z,15.90
2023-05-21T06:59:03.917Z,15.90
2023-05-21T07:03:10.132Z,16.10
2023-05-21T07:07:15.744Z,16.10
2023-05-21T07:11:21.552Z,16.30
2023-05-21T07:15:27.209Z,16.40
2023-05-21T07:19:32.857Z,16.50
2023-05-21T07:23:38.433Z,16.60
2023-05-21T07:27:43.930Z,16.80
2023-05-21T07:31:49.417Z,17.00
2023-05-21T07:35:54.910Z,17.20
2023-05-21T07:40:00.492Z,17.30
2023-05-21T07:44:06.187Z,17.40
2023-05-21T07:48:11.793Z,17.40
2023-05-21T07:52:17.333Z,17.50
2023-05-21T07:56:23.080Z,17.60
2023-05-21T08:00:28.615Z,17.70
2023-05-21T08:04:34.174Z,17.80
2023-05-21T08:08:39.695Z,17.90
2023-05-21T08:12:45.179Z,18.00
2023-05-21T08:16:51.062Z,18.00
2023-05-21T08:20:56.712Z,18.10
2023-05-21T08:25:02.227Z,18.10
2023-05-21T08:29:07.705Z,18.20
2023-05-21T08:33:13.973Z,18.20
2023-05-21T08:37:21.421Z,18.30
2023-05-21T08:41:28.741Z,18.30
2023-05-21T08:45:38.298Z,18.40
2023-05-21T08:49:45.730Z,18.50
2023-05-21T08:53:51.289Z,18.60
2023-05-21T08:57:56.883Z,18.70
2023-05-21T09:02:03.638Z,18.80
2023-05-21T09:06:14.201Z,18.90
2023-05-21T09:10:27.429Z,18.90
2023-05-21T09:14:33.313Z,18.90
2023-05-21T09:18:38.828Z,18.90
2023-05-21T09:22:46.826Z,18.90
2023-05-21T09:26:52.546Z,19.00
2023-05-21T09:31:03.997Z,18.90
2023-05-21T09:35:12.551Z,18.90
2023-05-21T09:39:30.563Z,18.90
2023-05-21T09:43:37.070Z,19.10
2023-05-21T09:47:44.157Z,19.20
2023-05-21T09:51:49.975Z,19.30
2023-05-21T09:55:58.303Z,19.30
2023-05-21T10:00:06.494Z,19.50
2023-05-21T10:04:12.543Z,19.50
2023-05-21T10:08:21.922Z,19.60
2023-05-21T10:12:30.576Z,19.60
2023-05-21T10:16:37.792Z,19.90
2023-05-21T10:20:43.656Z,20.00
2023-05-21T10:24:50.714Z,20.10
2023-05-21T10:29:00.041Z,20.20
2023-05-21T10:33:06.252Z,20.20
2023-05-21T10:37:13.505Z,20.10
2023-05-21T10:41:21.920Z,20.00
2023-05-21T10:45:55.570Z,20.00
2023-05-21T10:50:28.800Z,19.90
2023-05-21T10:54:40.135Z,19.90
2023-05-21T10:59:43.454Z,19.90
2023-05-21T11:03:49.669Z,19.80
2023-05-21T11:07:58.623Z,19.90
2023-05-21T11:12:04.927Z,20.00
2023-05-21T11:16:17.994Z,20.00
2023-05-21T11:20:23.548Z,20.10
2023-05-21T11:24:33.675Z,20.30
2023-05-21T11:28:39.170Z,20.60
2023-05-21T11:33:14.072Z,20.80
2023-05-21T11:37:22.346Z,20.90
2023-05-21T11:41:27.852Z,21.10
2023-05-21T11:45:33.573Z,21.20
2023-05-21T11:49:39.773Z,21.30
2023-05-21T11:53:46.335Z,21.60
2023-05-21T11:57:54.627Z,21.70
2023-05-21T12:02:00.490Z,21.80
2023-05-21T12:06:07.115Z,21.90
2023-05-21T12:10:13.326Z,22.00
2023-05-21T12:14:19.070Z,21.90
2023-05-21T12:18:25.966Z,22.10
2023-05-21T12:22:31.473Z,22.20
2023-05-21T12:26:37.044Z,22.10
2023-05-21T12:30:42.541Z,22.00
2023-05-21T12:34:54.889Z,22.10
2023-05-21T12:39:00.563Z,22.20
2023-05-21T12:43:06.963Z,22.20
2023-05-21T12:47:13.280Z,22.30
2023-05-21T12:51:19.362Z,22.40
2023-05-21T12:55:26.352Z,22.50
2023-05-21T12:59:57.015Z,22.60
2023-05-21T13:04:05.089Z,22.60
2023-05-21T13:08:11.293Z,22.70
2023-05-21T13:12:16.947Z,22.80
2023-05-21T13:16:23.716Z,22.90
2023-05-21T13:20:29.641Z,22.90
2023-05-21T13:24:35.156Z,23.00
2023-05-21T13:28:42.771Z,23.20
2023-05-21T13:32:49.090Z,23.40
2023-05-21T13:36:54.680Z,23.60
2023-05-21T13:41:00.171Z,23.80
2023-05-21T13:45:08.782Z,24.00
2023-05-21T13:49:14.353Z,24.00
2023-05-21T13:53:19.894Z,24.20
2023-05-21T13:57:27.023Z,24.20
2023-05-21T14:01:32.649Z,24.20
2023-05-21T14:05:38.500Z,24.40
2023-05-21T14:09:44.000Z,24.40
2023-05-21T14:13:49.529Z,24.50
2023-05-21T14:17:55.133Z,24.40
2023-05-21T14:22:00.732Z,24.50
2023-05-21T14:26:06.456Z,24.50
2023-05-21T14:30:12.218Z,24.60
2023-05-21T14:34:17.848Z,24.50
2023-05-21T14:38:23.425Z,24.60
2023-05-21T14:42:28.909Z,24.60
2023-05-21T14:46:34.555Z,24.80
2023-05-21T14:50:40.901Z,24.80
2023-05-21T14:54:46.423Z,24.60
2023-05-21T14:58:52.336Z,24.60
2023-05-21T15:02:58.144Z,24.60
2023-05-21T15:07:03.831Z,24.60
2023-05-21T15:11:11.502Z,24.50
2023-05-21T15:15:17.678Z,24.40
2023-05-21T15:19:23.361Z,24.30
2023-05-21T15:23:29.085Z,24.30
2023-05-21T15:27:35.268Z,24.20
2023-05-21T15:31:40.985Z,24.10
2023-05-21T15:35:46.651Z,24.00
2023-05-21T15:39:53.433Z,23.80
2023-05-21T15:43:58.957Z,23.70
2023-05-21T15:48:05.166Z,23.70
2023-05-21T15:52:10.733Z,23.60
2023-05-21T15:56:16.685Z,23.50
2023-05-21T16:00:22.151Z,23.40
2023-05-21T16:04:27.680Z,23.30
2023-05-21T16:08:33.405Z,23.10
2023-05-21T16:12:38.901Z,22.90
2023-05-21T16:16:44.657Z,22.70
2023-05-21T16:20:50.126Z,22.60
2023-05-21T16:24:56.313Z,22.50
2023-05-21T16:29:02.345Z,22.40
2023-05-21T16:33:08.106Z,22.30
2023-05-21T16:37:13.645Z,22.20
2023-05-21T16:41:19.182Z,22.10
2023-05-21T16:45:24.726Z,22.10
2023-05-21T16:49:30.300Z,22.00
2023-05-21T16:53:35.892Z,21.90
2023-05-21T16:57:41.378Z,21.80
2023-05-21T17:01:46.960Z,21.80
2023-05-21T17:05:53.060Z,21.80
2023-05-21T17:09:58.557Z,21.80
2023-05-21T17:14:04.054Z,21.80
2023-05-21T17:18:09.593Z,21.70
2023-05-21T17:22:15.151Z,21.70
2023-05-21T17:26:21.786Z,21.70
2023-05-21T17:30:27.354Z,21.60
2023-05-21T17:34:32.893Z,21.60
2023-05-21T17:38:38.402Z,21.60
2023-05-21T17:42:43.860Z,21.50
2023-05-21T17:46:50.819Z,21.40
2023-05-21T17:50:56.380Z,21.40
2023-05-21T17:55:02.093Z,21.30
2023-05-21T17:59:09.118Z,21.20
2023-05-21T18:03:14.712Z,21.10
2023-05-21T18:07:22.200Z,21.00
2023-05-21T18:11:27.741Z,20.90
2023-05-21T18:15:34.211Z,20.90
2023-05-21T18:19:39.823Z,20.90
2023-05-21T18:23:45.411Z,20.80
2023-05-21T18:27:52.129Z,20.80
2023-05-21T18:31:57.658Z,20.60
2023-05-21T18:36:03.402Z,20.50
2023-05-21T18:40:09.716Z,20.40
2023-05-21T18:44:15.209Z,20.30
2023-05-21T18:48:20.782Z,20.20
2023-05-21T18:52:26.532Z,20.10
2023-05-21T18:56:32.012Z,19.90
2023-05-21T19:00:39.603Z,19.80
2023-05-21T19:04:45.618Z,19.80
2023-05-21T19:08:52.946Z,19.70
2023-05-21T19:12:58.553Z,19.50
2023-05-21T19:17:04.194Z,19.40
2023-05-21T19:21:09.782Z,19.30
2023-05-21T19:25:15.405Z,19.10
2023-05-21T19:29:21.732Z,19.00
2023-05-21T19:33:27.304Z,18.90
2023-05-21T19:37:32.837Z,18.80
2023-05-21T19:41:38.326Z,18.80
2023-05-21T19:45:43.916Z,18.70
2023-05-21T19:49:49.491Z,18.70
2023-05-21T19:53:54.967Z,18.60
2023-05-21T19:58:00.611Z,18.50
2023-05-21T20:02:06.164Z,18.40
2023-05-21T20:06:12.314Z,18.40
2023-05-21T20:10:18.407Z,18.30
2023-05-21T20:14:23.894Z,18.20
2023-05-21T20:18:29.374Z,18.10
2023-05-21T20:22:34.891Z,18.00
2023-05-21T20:26:40.733Z,18.00
2023-05-21T20:30:57.382Z,17.90
2023-05-21T20:35:04.021Z,17.90
2023-05-21T20:39:10.118Z,17.80
2023-05-21T20:43:15.649Z,17.70
2023-05-21T20:47:23.349Z,17.60
2023-05-21T20:51:28.993Z,17.60
2023-05-21T20:55:34.896Z,17.60
2023-05-21T20:59:40.562Z,17.50
2023-05-21T21:03:46.424Z,17.40
2023-05-21T21:07:55.464Z,17.40
2023-05-21T21:12:06.228Z,17.40
2023-05-21T21:16:17.035Z,17.30
2023-05-21T21:20:22.554Z,17.30
2023-05-21T21:24:28.054Z,17.30
2023-05-21T21:28:33.637Z,17.20
2023-05-21T21:32:39.252Z,17.20
2023-05-21T21:36:44.812Z,17.20
2023-05-21T21:40:50.315Z,17.20
2023-05-21T21:44:55.808Z,17.10
2023-05-21T21:49:01.303Z,17.10
2023-05-21T21:53:06.819Z,17.10
2023-05-21T21:57:12.297Z,17.00
2023-05-21T22:01:17.978Z,17.00
2023-05-21T22:05:23.479Z,17.00
2023-05-21T22:09:29.122Z,17.00
2023-05-21T22:13:34.836Z,16.90
2023-05-21T22:17:40.482Z,16.90
2023-05-21T22:21:46.414Z,16.90
2023-05-21T22:25:52.210Z,16.80
2023-05-21T22:29:57.745Z,16.80
2023-05-21T22:34:03.290Z,16.80
2023-05-21T22:38:08.776Z,16.70
2023-05-21T22:42:14.249Z,16.70
2023-05-21T22:46:19.862Z,16.70
2023-05-21T22:50:29.386Z,16.60
2023-05-21T22:54:37.874Z,16.60
2023-05-21T22:58:43.430Z,16.50
2023-05-21T23:02:50.636Z,16.50
2023-05-21T23:06:57.827Z,16.50
2023-05-21T23:11:03.530Z,16.40
2023-05-21T23:15:09.997Z,16.40
2023-05-21T23:19:16.800Z,16.40
2023-05-21T23:23:22.400Z,16.40
2023-05-21T23:27:27.897Z,16.30
2023-05-21T23:31:33.483Z,16.30
2023-05-21T23:35:38.979Z,16.20
2023-05-21T23:39:48.115Z,16.20
2023-05-21T23:43:54.360Z,16.10
2023-05-21T23:47:59.928Z,16.10
2023-05-21T23:52:06.447Z,16.10
2023-05-21T23:56:12.032Z,15.90
